Time;durP1;ratioP1;P1;durP2;ratioP2;P2;SDS_P1;SDS_P2;PMS_P1;PMS_P2;Temp;Humidity;BMP_temperature;BMP_pressure;BME280_temperature;BME280_humidity;BME280_pressure;Samples;Min_cycle;Max_cycle;Signal;HPM_P1;HPM_P2
2022/03/15 00:00:41;;;;;;;15.27;9.27;;;2.90;99.90;;;;;;4985936;28;20100;-62
2022/03/15 00:03:07;;;;;;;15.75;8.48;;;2.90;99.90;;;;;;4978849;28;20491;-64
2022/03/15 00:05:33;;;;;;;17.70;10.15;;;2.90;99.90;;;;;;4975246;28;20043;-62
2022/03/15 00:07:58;;;;;;;14.93;9.48;;;2.90;99.90;;;;;;4991774;28;20450;-63
2022/03/15 00:10:24;;;;;;;18.25;9.38;;;2.90;99.90;;;;;;4973911;28;20057;-63
2022/03/15 00:12:51;;;;;;;18.63;10.15;;;2.90;99.90;;;;;;4980065;28;20050;-64
2022/03/15 00:15:17;;;;;;;15.95;9.50;;;3.00;99.90;;;;;;4990226;28;20042;-63
2022/03/15 00:17:44;;;;;;;18.50;9.27;;;3.00;99.90;;;;;;4978946;28;20058;-62
2022/03/15 00:20:18;;;;;;;17.42;9.30;;;3.00;99.90;;;;;;4992167;28;20065;-62
2022/03/15 00:22:44;;;;;;;21.05;9.95;;;3.00;99.90;;;;;;4967292;28;20081;-61
2022/03/15 00:25:11;;;;;;;18.75;9.40;;;3.10;99.90;;;;;;4974297;28;20479;-62
2022/03/15 00:27:37;;;;;;;17.58;9.50;;;3.10;99.90;;;;;;4974152;28;20042;-61
2022/03/15 00:30:05;;;;;;;15.88;9.73;;;3.10;99.90;;;;;;4982786;28;20065;-63
2022/03/15 00:32:32;;;;;;;18.30;9.05;;;3.10;99.90;;;;;;4989298;28;20058;-62
2022/03/15 00:34:57;;;;;;;14.75;9.73;;;3.10;99.90;;;;;;4983306;28;20102;-64
2022/03/15 00:37:23;;;;;;;16.15;9.70;;;3.20;99.90;;;;;;4979396;28;20062;-63
2022/03/15 00:39:50;;;;;;;14.23;9.02;;;3.10;99.90;;;;;;4973579;28;20066;-62
2022/03/15 00:42:16;;;;;;;14.68;8.02;;;3.10;99.90;;;;;;4976806;28;20050;-64
2022/03/15 00:44:42;;;;;;;18.83;9.52;;;3.10;99.90;;;;;;4992071;28;20073;-62
2022/03/15 00:47:08;;;;;;;17.58;8.93;;;3.10;99.90;;;;;;4982435;28;20047;-61
2022/03/15 00:49:35;;;;;;;15.25;8.90;;;3.10;99.90;;;;;;4987370;28;20146;-62
2022/03/15 00:52:00;;;;;;;15.35;8.57;;;3.10;99.90;;;;;;4974659;28;20055;-63
2022/03/15 00:54:26;;;;;;;17.90;7.82;;;3.10;99.90;;;;;;4974521;28;20062;-62
2022/03/15 00:56:52;;;;;;;15.63;8.63;;;3.10;99.90;;;;;;4972916;28;20046;-62
2022/03/15 00:59:19;;;;;;;14.93;8.27;;;3.00;99.90;;;;;;4973926;28;20050;-63
2022/03/15 01:01:48;;;;;;;11.65;7.75;;;3.00;99.90;;;;;;4973193;28;20051;-61
2022/03/15 01:04:14;;;;;;;13.30;7.85;;;3.00;99.90;;;;;;4982405;28;20085;-64
2022/03/15 01:06:42;;;;;;;12.65;7.60;;;3.00;99.90;;;;;;4982378;28;20054;-63
2022/03/15 01:09:09;;;;;;;16.42;8.32;;;2.90;99.90;;;;;;4982808;28;20055;-63
2022/03/15 01:11:35;;;;;;;15.90;8.68;;;2.90;99.90;;;;;;4984220;28;20054;-62
2022/03/15 01:14:01;;;;;;;16.92;8.30;;;2.90;99.90;;;;;;4974360;28;20499;-63
2022/03/15 01:16:26;;;;;;;19.13;10.13;;;2.90;99.90;;;;;;4972391;28;20054;-62
2022/03/15 01:18:52;;;;;;;16.63;9.90;;;2.90;99.90;;;;;;4972076;28;20429;-61
2022/03/15 01:21:19;;;;;;;20.13;10.50;;;2.90;99.90;;;;;;4972118;28;20082;-63
2022/03/15 01:23:45;;;;;;;19.30;10.68;;;3.00;99.90;;;;;;4987346;28;20065;-62
2022/03/15 01:26:10;;;;;;;21.65;10.85;;;3.00;99.90;;;;;;4977044;28;20050;-62
2022/03/15 01:28:36;;;;;;;19.65;11.63;;;3.10;99.90;;;;;;4979850;28;20503;-64
2022/03/15 01:31:01;;;;;;;27.92;12.65;;;3.20;99.90;;;;;;4976270;28;20491;-63
2022/03/15 01:33:27;;;;;;;20.17;11.27;;;3.20;99.90;;;;;;4965284;28;20058;-64
2022/03/15 01:35:53;;;;;;;21.17;12.43;;;3.30;99.90;;;;;;4974412;28;20055;-63
2022/03/15 01:38:19;;;;;;;16.45;11.38;;;3.40;99.90;;;;;;4983007;28;20434;-64
2022/03/15 01:40:45;;;;;;;18.17;9.70;;;3.40;99.90;;;;;;4979664;28;20053;-63
2022/03/15 01:43:11;;;;;;;19.92;10.00;;;3.40;99.90;;;;;;4983333;28;20066;-62
2022/03/15 01:45:38;;;;;;;17.35;10.23;;;3.40;99.90;;;;;;4976133;28;20101;-63
2022/03/15 01:48:07;;;;;;;16.02;9.40;;;3.40;99.90;;;;;;4983366;28;20066;-64
2022/03/15 01:50:33;;;;;;;17.33;9.90;;;3.40;99.90;;;;;;4977607;28;20439;-64
2022/03/15 01:52:58;;;;;;;15.05;8.73;;;3.30;99.90;;;;;;4981689;28;20061;-62
2022/03/15 01:55:24;;;;;;;15.18;9.70;;;3.30;99.90;;;;;;4987493;28;20046;-62
2022/03/15 01:57:50;;;;;;;16.58;9.82;;;3.20;99.90;;;;;;4980973;28;20059;-64
2022/03/15 02:00:17;;;;;;;18.27;9.65;;;3.20;99.90;;;;;;4976262;28;20068;-63
2022/03/15 02:02:43;;;;;;;19.42;9.10;;;3.20;99.90;;;;;;4980655;28;20117;-64
2022/03/15 02:05:09;;;;;;;16.25;9.25;;;3.20;99.90;;;;;;4984595;28;20042;-62
2022/03/15 02:07:35;;;;;;;12.73;8.88;;;3.20;99.90;;;;;;4985076;28;20042;-62
2022/03/15 02:10:00;;;;;;;18.52;9.32;;;3.20;99.90;;;;;;4993232;28;20513;-62
2022/03/15 02:12:29;;;;;;;18.70;8.82;;;3.20;99.90;;;;;;4986593;28;20050;-63
2022/03/15 02:14:57;;;;;;;15.75;10.20;;;3.20;99.90;;;;;;4959683;28;20047;-64
2022/03/15 02:17:22;;;;;;;15.25;9.68;;;3.20;99.90;;;;;;4977489;28;20103;-64
2022/03/15 02:19:49;;;;;;;18.27;8.88;;;3.20;99.90;;;;;;4972133;28;20050;-63
2022/03/15 02:22:14;;;;;;;12.05;8.10;;;3.20;99.90;;;;;;4978301;28;20046;-62
2022/03/15 02:24:40;;;;;;;19.30;8.88;;;3.30;99.90;;;;;;4990526;28;20550;-62
2022/03/15 02:27:06;;;;;;;16.60;9.98;;;3.30;99.90;;;;;;4963569;28;20133;-62
2022/03/15 02:29:33;;;;;;;14.63;8.57;;;3.20;99.90;;;;;;4992694;28;20149;-63
2022/03/15 02:31:59;;;;;;;12.90;8.50;;;3.20;99.90;;;;;;4982829;28;20129;-64
2022/03/15 02:34:25;;;;;;;15.00;9.93;;;3.20;99.90;;;;;;4986866;28;20486;-63
2022/03/15 02:36:51;;;;;;;13.93;8.63;;;3.20;99.90;;;;;;4974823;28;20102;-66
2022/03/15 02:39:17;;;;;;;15.63;9.40;;;3.10;99.90;;;;;;4975035;28;20046;-63
2022/03/15 02:41:42;;;;;;;16.60;9.57;;;3.10;99.90;;;;;;4977391;28;20133;-63
2022/03/15 02:44:09;;;;;;;17.38;9.52;;;3.10;99.90;;;;;;4995018;28;20074;-63
2022/03/15 02:46:39;;;;;;;16.75;10.02;;;3.00;99.90;;;;;;4982194;28;20463;-63
2022/03/15 02:49:04;;;;;;;17.58;10.50;;;3.00;99.90;;;;;;4991634;28;20046;-62
2022/03/15 02:51:31;;;;;;;21.73;9.95;;;2.90;99.90;;;;;;4970027;28;20070;-62
2022/03/15 02:53:57;;;;;;;18.35;9.68;;;2.90;99.90;;;;;;4975120;28;20051;-64
2022/03/15 02:56:23;;;;;;;16.35;8.93;;;2.90;99.90;;;;;;4988207;28;20073;-64
2022/03/15 02:58:48;;;;;;;17.08;9.40;;;2.90;99.90;;;;;;4992990;28;20483;-64
2022/03/15 03:01:15;;;;;;;16.23;10.25;;;2.90;99.90;;;;;;4976644;28;20058;-63
2022/03/15 03:03:41;;;;;;;16.33;9.35;;;2.90;99.90;;;;;;4982887;28;20136;-62
2022/03/15 03:06:07;;;;;;;15.82;10.15;;;2.90;99.90;;;;;;4992516;28;20066;-63
2022/03/15 03:08:34;;;;;;;15.32;9.60;;;2.90;99.90;;;;;;4972960;28;20073;-64
2022/03/15 03:11:00;;;;;;;16.52;9.18;;;2.90;99.90;;;;;;4977806;28;20042;-63
2022/03/15 03:13:26;;;;;;;15.25;9.88;;;2.90;99.90;;;;;;4982138;28;20058;-63
2022/03/15 03:15:56;;;;;;;15.48;8.73;;;2.80;99.90;;;;;;4989076;28;20082;-63
2022/03/15 03:18:28;;;;;;;16.83;9.75;;;2.80;99.90;;;;;;4977055;28;20058;-64
2022/03/15 03:20:54;;;;;;;15.83;8.70;;;2.70;99.90;;;;;;4994094;28;20054;-64
2022/03/15 03:23:20;;;;;;;18.55;9.82;;;2.70;99.90;;;;;;4961547;28;20381;-64
2022/03/15 03:25:46;;;;;;;14.75;10.00;;;2.70;99.90;;;;;;4986304;28;20484;-63
2022/03/15 03:28:13;;;;;;;18.00;9.95;;;2.70;99.90;;;;;;4978336;28;20133;-63
2022/03/15 03:30:41;;;;;;;16.73;10.13;;;2.70;99.90;;;;;;4989868;28;20479;-63
2022/03/15 03:33:07;;;;;;;12.15;9.43;;;2.70;99.90;;;;;;4965615;28;20181;-62
2022/03/15 03:35:32;;;;;;;19.38;9.15;;;2.70;99.90;;;;;;4993627;28;20137;-63
2022/03/15 03:37:58;;;;;;;17.50;9.55;;;2.70;99.90;;;;;;4979906;28;20109;-62
2022/03/15 03:40:24;;;;;;;15.68;9.65;;;2.60;99.90;;;;;;4973749;28;20093;-63
2022/03/15 03:42:49;;;;;;;17.27;9.93;;;2.70;99.90;;;;;;4988655;28;20053;-63
2022/03/15 03:45:15;;;;;;;15.88;9.38;;;2.70;99.90;;;;;;4977796;28;20424;-64
2022/03/15 03:47:40;;;;;;;16.15;9.43;;;2.60;99.90;;;;;;4985425;28;20058;-64
2022/03/15 03:50:09;;;;;;;19.40;10.27;;;2.70;99.90;;;;;;4974456;28;20474;-62
2022/03/15 03:52:35;;;;;;;13.93;9.57;;;2.70;99.90;;;;;;4976382;28;20063;-62
2022/03/15 03:55:00;;;;;;;17.63;10.20;;;2.70;99.90;;;;;;4957517;28;20058;-62
2022/03/15 03:57:26;;;;;;;20.33;10.45;;;2.80;99.90;;;;;;4979425;28;20038;-63
2022/03/15 03:59:51;;;;;;;16.08;9.48;;;2.90;99.90;;;;;;4984752;28;20054;-62
2022/03/15 04:02:17;;;;;;;17.75;10.85;;;2.90;99.90;;;;;;4985657;28;20104;-62
2022/03/15 04:04:44;;;;;;;17.08;10.48;;;2.90;99.90;;;;;;4976297;28;20062;-63
2022/03/15 04:07:11;;;;;;;18.80;10.63;;;2.90;99.90;;;;;;4978406;28;20035;-64
2022/03/15 04:09:37;;;;;;;16.83;10.18;;;2.90;99.90;;;;;;4974159;28;20050;-63
2022/03/15 04:12:05;;;;;;;14.57;9.45;;;3.00;99.90;;;;;;4971838;28;20047;-63
2022/03/15 04:14:30;;;;;;;19.20;10.50;;;3.00;99.90;;;;;;4974578;28;20050;-63
2022/03/15 04:16:56;;;;;;;16.55;10.57;;;3.00;99.90;;;;;;4983323;28;20510;-64
2022/03/15 04:19:21;;;;;;;20.25;12.63;;;3.00;99.90;;;;;;4974699;28;20050;-62
2022/03/15 04:21:47;;;;;;;18.50;11.70;;;3.00;99.90;;;;;;4979240;28;20121;-62
2022/03/15 04:24:14;;;;;;;15.82;11.25;;;3.10;99.90;;;;;;4993478;28;20538;-64
2022/03/15 04:26:40;;;;;;;21.15;11.25;;;3.10;99.90;;;;;;4973499;28;20124;-62
2022/03/15 04:29:06;;;;;;;21.05;12.27;;;3.20;99.90;;;;;;4976929;28;20047;-63
2022/03/15 04:31:31;;;;;;;18.95;10.73;;;3.20;99.90;;;;;;4979809;28;20065;-64
2022/03/15 04:33:57;;;;;;;18.98;10.35;;;3.20;99.90;;;;;;4983731;28;20120;-63
2022/03/15 04:36:22;;;;;;;18.85;10.77;;;3.20;99.90;;;;;;4978221;28;20106;-63
2022/03/15 04:38:48;;;;;;;14.02;10.20;;;3.20;99.90;;;;;;4990097;28;20444;-64
2022/03/15 04:41:13;;;;;;;17.08;10.52;;;3.30;99.90;;;;;;4980026;28;20133;-64
2022/03/15 04:43:39;;;;;;;15.85;10.10;;;3.30;99.90;;;;;;4974052;28;20066;-63
2022/03/15 04:46:06;;;;;;;17.02;10.50;;;3.30;99.90;;;;;;4974890;28;20054;-62
2022/03/15 04:48:32;;;;;;;16.95;10.55;;;3.30;99.90;;;;;;4985414;28;20057;-63
2022/03/15 04:50:57;;;;;;;18.38;10.82;;;3.30;99.90;;;;;;4990225;28;20053;-61
2022/03/15 04:53:23;;;;;;;13.07;9.50;;;3.40;99.90;;;;;;4981577;28;20051;-63
2022/03/15 04:55:48;;;;;;;17.77;10.25;;;3.30;99.90;;;;;;4980274;28;20118;-62
2022/03/15 04:58:14;;;;;;;16.80;10.75;;;3.40;99.90;;;;;;4972000;28;20055;-62
2022/03/15 05:00:40;;;;;;;14.65;10.60;;;3.40;99.90;;;;;;4980047;28;20058;-63
2022/03/15 05:03:06;;;;;;;14.43;9.05;;;3.40;99.90;;;;;;4957616;28;20134;-62
2022/03/15 05:05:31;;;;;;;12.43;9.40;;;3.50;99.90;;;;;;4973966;28;20055;-64
2022/03/15 05:07:57;;;;;;;15.20;10.25;;;3.50;99.90;;;;;;4982637;28;20054;-62
2022/03/15 05:13:07;;;;;;;17.00;10.02;;;3.50;99.90;;;;;;4978511;28;20051;-62
2022/03/15 05:15:33;;;;;;;13.90;10.00;;;3.50;99.90;;;;;;4976607;28;20042;-63
2022/03/15 05:18:01;;;;;;;19.60;10.65;;;3.50;99.90;;;;;;4985381;28;20046;-63
2022/03/15 05:20:29;;;;;;;16.23;10.07;;;3.50;99.90;;;;;;4989984;28;20047;-62
2022/03/15 05:22:54;;;;;;;16.52;9.95;;;3.60;99.90;;;;;;4982466;28;20047;-63
2022/03/15 05:25:20;;;;;;;20.20;11.35;;;3.60;99.90;;;;;;4977594;28;20459;-63
2022/03/15 05:27:45;;;;;;;20.02;13.07;;;3.60;99.90;;;;;;4980360;28;20388;-63
2022/03/15 05:30:12;;;;;;;24.65;12.48;;;3.70;99.90;;;;;;4976737;28;20117;-62
2022/03/15 05:32:37;;;;;;;17.67;11.55;;;3.70;99.90;;;;;;4979814;28;20058;-62
2022/03/15 05:35:03;;;;;;;20.85;12.48;;;3.70;99.90;;;;;;4977926;28;20407;-62
2022/03/15 05:37:29;;;;;;;18.30;12.48;;;3.70;99.90;;;;;;4975614;28;20121;-62
2022/03/15 05:39:55;;;;;;;22.58;13.93;;;3.80;99.90;;;;;;4978039;28;20444;-62
2022/03/15 05:42:20;;;;;;;23.38;14.48;;;3.80;99.90;;;;;;4977266;28;20046;-63
2022/03/15 05:44:47;;;;;;;25.98;14.73;;;3.80;99.90;;;;;;4978288;28;20141;-63
2022/03/15 05:47:13;;;;;;;29.77;15.85;;;3.80;99.90;;;;;;4972076;28;20113;-61
2022/03/15 05:49:39;;;;;;;26.90;14.35;;;3.90;99.90;;;;;;4979103;28;20200;-63
2022/03/15 05:52:05;;;;;;;28.38;16.20;;;3.90;99.90;;;;;;4974153;28;20543;-63
2022/03/15 05:54:32;;;;;;;26.15;16.23;;;4.00;99.90;;;;;;4976686;28;20071;-62
2022/03/15 05:56:58;;;;;;;26.25;15.60;;;4.00;99.90;;;;;;4987499;28;20411;-62
2022/03/15 05:59:23;;;;;;;30.77;17.20;;;4.00;99.90;;;;;;4993062;28;20061;-61
2022/03/15 06:01:49;;;;;;;27.95;16.95;;;4.00;99.90;;;;;;4984182;28;20053;-62
2022/03/15 06:04:15;;;;;;;30.67;17.38;;;4.10;99.90;;;;;;4990223;28;20399;-64
2022/03/15 06:06:40;;;;;;;32.17;18.75;;;4.10;99.90;;;;;;4988052;28;20061;-65
2022/03/15 06:09:06;;;;;;;29.88;17.55;;;4.10;99.90;;;;;;4975172;28;20477;-63
2022/03/15 06:11:32;;;;;;;26.67;15.40;;;4.10;99.90;;;;;;4976501;28;20121;-64
2022/03/15 06:13:58;;;;;;;32.88;17.63;;;4.10;99.90;;;;;;4976687;28;20396;-64
2022/03/15 06:16:24;;;;;;;35.72;17.55;;;4.20;99.90;;;;;;4989416;28;20050;-62
2022/03/15 06:18:50;;;;;;;28.00;17.23;;;4.20;99.90;;;;;;4978433;28;20054;-63
2022/03/15 06:21:19;;;;;;;28.60;16.95;;;4.20;99.90;;;;;;4987239;28;20061;-63
2022/03/15 06:23:44;;;;;;;34.40;18.15;;;4.30;99.90;;;;;;4977504;28;20137;-63
2022/03/15 06:26:10;;;;;;;29.88;16.88;;;4.30;99.90;;;;;;4994804;28;20471;-63
2022/03/15 06:28:37;;;;;;;31.75;18.33;;;4.30;99.90;;;;;;4987781;28;20130;-66
2022/03/15 06:31:03;;;;;;;27.63;17.90;;;4.40;99.90;;;;;;4987865;28;20154;-64
2022/03/15 06:33:29;;;;;;;30.70;19.65;;;4.40;99.90;;;;;;4987853;28;20483;-62
2022/03/15 06:35:55;;;;;;;34.72;21.17;;;4.50;99.90;;;;;;4973786;28;20063;-63
2022/03/15 06:38:21;;;;;;;34.85;20.02;;;4.50;99.90;;;;;;4990786;28;20061;-63
2022/03/15 06:40:47;;;;;;;36.53;22.98;;;4.60;99.90;;;;;;4969459;28;20047;-63
2022/03/15 06:43:13;;;;;;;40.58;21.98;;;4.60;99.90;;;;;;4964815;28;20065;-63
2022/03/15 06:45:44;;;;;;;40.13;21.98;;;4.60;99.90;;;;;;4964393;28;20043;-63
2022/03/15 06:48:10;;;;;;;42.42;23.52;;;4.70;99.90;;;;;;4961162;28;20069;-63
2022/03/15 06:50:37;;;;;;;42.90;23.75;;;4.70;99.90;;;;;;4963003;28;20055;-62
2022/03/15 06:53:03;;;;;;;38.70;22.38;;;4.80;99.90;;;;;;4960909;28;20054;-64
2022/03/15 06:55:29;;;;;;;44.88;25.25;;;4.80;99.90;;;;;;4968821;28;20472;-64
2022/03/15 06:57:55;;;;;;;39.85;25.05;;;4.90;99.90;;;;;;4971057;28;20047;-63
2022/03/15 07:00:21;;;;;;;40.53;23.77;;;4.90;99.90;;;;;;4965796;28;20051;-63
2022/03/15 07:02:51;;;;;;;35.95;22.88;;;5.00;99.90;;;;;;4964224;28;20059;-63
2022/03/15 07:05:17;;;;;;;40.20;25.13;;;5.10;99.90;;;;;;4962638;28;20059;-63
2022/03/15 07:07:43;;;;;;;45.05;25.15;;;5.10;99.90;;;;;;4974006;28;20404;-64
2022/03/15 07:10:10;;;;;;;40.92;24.73;;;5.20;99.90;;;;;;4960327;28;20051;-64
2022/03/15 07:12:37;;;;;;;40.95;24.58;;;5.20;99.90;;;;;;4968033;28;20120;-63
2022/03/15 07:15:04;;;;;;;41.17;24.58;;;5.30;99.90;;;;;;4990793;28;20520;-64
2022/03/15 07:17:30;;;;;;;44.33;26.08;;;5.30;99.90;;;;;;4974339;28;20423;-64
2022/03/15 07:19:57;;;;;;;40.92;24.10;;;5.40;99.90;;;;;;4974003;28;20055;-64
2022/03/15 07:22:24;;;;;;;42.22;25.40;;;5.50;99.90;;;;;;4975316;28;20404;-63
2022/03/15 07:24:51;;;;;;;39.83;24.70;;;5.50;99.90;;;;;;4974245;28;20058;-64
2022/03/15 07:27:17;;;;;;;42.78;24.95;;;5.60;99.90;;;;;;4973454;28;20059;-62
2022/03/15 07:29:42;;;;;;;39.88;25.00;;;5.70;99.90;;;;;;4974026;28;20396;-64
2022/03/15 07:32:08;;;;;;;40.45;24.60;;;5.70;99.90;;;;;;4973522;28;20471;-62
2022/03/15 07:34:33;;;;;;;39.13;26.02;;;5.80;99.90;;;;;;4973987;28;20482;-63
2022/03/15 07:36:59;;;;;;;38.45;24.67;;;5.80;99.90;;;;;;4974168;28;20142;-64
2022/03/15 07:39:25;;;;;;;35.78;25.20;;;5.90;99.90;;;;;;4973536;28;20377;-64
2022/03/15 07:41:51;;;;;;;41.20;26.90;;;5.90;99.90;;;;;;4957757;28;20476;-63
2022/03/15 07:44:17;;;;;;;41.17;26.67;;;6.00;99.90;;;;;;4975269;28;20061;-64
2022/03/15 07:46:48;;;;;;;39.95;27.00;;;6.00;99.90;;;;;;4973961;28;20055;-62
2022/03/15 07:49:18;;;;;;;39.15;26.13;;;6.10;99.90;;;;;;4974298;28;20054;-63
2022/03/15 07:51:44;;;;;;;42.17;25.17;;;6.10;99.90;;;;;;4974578;28;20539;-63
2022/03/15 07:54:10;;;;;;;41.47;25.38;;;6.10;99.90;;;;;;4979559;28;20086;-63
2022/03/15 07:56:37;;;;;;;36.50;24.33;;;6.20;99.90;;;;;;4975167;28;20063;-64
2022/03/15 07:59:02;;;;;;;41.22;25.98;;;6.20;99.90;;;;;;4973209;28;20057;-63
2022/03/15 08:01:28;;;;;;;45.35;26.90;;;6.20;99.90;;;;;;4976614;28;20057;-64
2022/03/15 08:03:54;;;;;;;37.75;25.52;;;6.20;99.90;;;;;;4973187;28;20043;-62
2022/03/15 08:06:19;;;;;;;40.38;25.73;;;6.30;99.90;;;;;;4978895;28;20059;-65
2022/03/15 08:08:45;;;;;;;38.50;25.92;;;6.30;99.90;;;;;;4991112;28;20676;-66
2022/03/15 08:11:11;;;;;;;42.00;26.02;;;6.30;99.90;;;;;;4971900;28;20400;-64
2022/03/15 08:13:37;;;;;;;50.08;27.90;;;6.30;99.90;;;;;;4964846;28;20058;-65
2022/03/15 08:16:05;;;;;;;43.33;25.65;;;6.30;99.90;;;;;;4964547;28;20050;-63
2022/03/15 08:18:34;;;;;;;40.97;26.55;;;6.30;99.90;;;;;;4967441;28;20190;-65
2022/03/15 08:21:00;;;;;;;39.05;25.73;;;6.40;99.90;;;;;;4963435;28;20050;-65
2022/03/15 08:23:29;;;;;;;35.67;25.48;;;6.40;99.90;;;;;;4971777;28;20524;-64
2022/03/15 08:25:55;;;;;;;37.80;26.13;;;6.50;99.90;;;;;;4972673;28;20110;-64
2022/03/15 08:28:25;;;;;;;39.53;26.58;;;6.50;99.90;;;;;;4973888;28;20131;-63
2022/03/15 08:30:52;;;;;;;34.28;24.25;;;6.60;99.90;;;;;;4972042;28;20050;-66
2022/03/15 08:33:18;;;;;;;36.97;24.45;;;6.60;99.90;;;;;;4971331;28;20066;-64
2022/03/15 08:35:44;;;;;;;33.63;24.15;;;6.60;99.90;;;;;;4974031;28;20054;-63
2022/03/15 08:38:11;;;;;;;36.65;26.88;;;6.70;99.90;;;;;;4972025;28;20667;-65
2022/03/15 08:40:37;;;;;;;35.85;25.55;;;6.80;99.90;;;;;;4974457;28;20050;-65
2022/03/15 08:43:04;;;;;;;39.75;26.55;;;6.80;99.90;;;;;;4971969;28;20050;-65
2022/03/15 08:45:30;;;;;;;38.67;25.58;;;6.80;99.90;;;;;;4972484;28;20042;-65
2022/03/15 08:47:55;;;;;;;39.92;24.35;;;6.90;99.90;;;;;;4972472;28;20109;-65
2022/03/15 08:50:21;;;;;;;36.75;25.52;;;6.90;99.90;;;;;;4972910;28;20097;-63
2022/03/15 08:52:48;;;;;;;33.60;23.80;;;7.00;99.90;;;;;;4972791;28;20047;-64
2022/03/15 08:55:14;;;;;;;39.60;25.92;;;7.10;99.90;;;;;;4972603;28;20452;-64
2022/03/15 08:57:40;;;;;;;35.05;25.58;;;7.10;99.90;;;;;;4971057;28;20050;-63
2022/03/15 09:00:08;;;;;;;32.90;23.70;;;7.10;99.90;;;;;;4972289;28;20077;-64
2022/03/15 09:02:34;;;;;;;37.75;24.65;;;7.10;99.90;;;;;;4973686;28;20104;-64
2022/03/15 09:05:00;;;;;;;32.65;24.42;;;7.20;99.90;;;;;;4973585;28;20138;-64
2022/03/15 09:07:27;;;;;;;39.08;24.40;;;7.20;99.90;;;;;;4972782;28;20050;-66
2022/03/15 09:09:53;;;;;;;37.33;24.45;;;7.20;99.90;;;;;;4972583;28;20130;-65
2022/03/15 09:12:19;;;;;;;35.92;25.58;;;7.20;99.90;;;;;;4972266;28;20387;-65
2022/03/15 09:14:45;;;;;;;36.47;25.35;;;7.20;99.90;;;;;;4972219;28;20054;-64
2022/03/15 09:17:10;;;;;;;39.88;26.45;;;7.20;99.90;;;;;;5190198;23;20040;-65
2022/03/15 09:19:36;;;;;;;36.08;25.35;;;7.30;99.90;;;;;;5062182;22;20077;-65
2022/03/15 09:22:03;;;;;;;41.97;25.98;;;7.30;99.90;;;;;;4995317;28;20042;-65
2022/03/15 09:24:31;;;;;;;34.13;25.70;;;7.30;99.90;;;;;;5101315;22;20069;-62
2022/03/15 09:26:57;;;;;;;36.00;26.13;;;7.30;99.90;;;;;;5010591;28;20050;-63
2022/03/15 09:29:22;;;;;;;41.35;25.60;;;7.40;99.90;;;;;;5011994;28;20144;-65
2022/03/15 09:31:48;;;;;;;41.08;28.33;;;7.40;99.90;;;;;;5011339;28;20061;-66
2022/03/15 09:34:14;;;;;;;35.47;24.67;;;7.50;99.90;;;;;;5010529;28;20050;-65
2022/03/15 09:36:39;;;;;;;36.05;25.30;;;7.50;99.90;;;;;;5011517;28;20107;-65
2022/03/15 09:39:09;;;;;;;40.80;26.75;;;7.60;99.90;;;;;;4994193;28;20046;-65
2022/03/15 09:41:38;;;;;;;34.65;24.02;;;7.60;99.90;;;;;;5000997;28;20078;-65
2022/03/15 09:44:08;;;;;;;38.08;25.52;;;7.70;99.90;;;;;;5034892;23;20053;-64
2022/03/15 09:46:56;;;;;;;33.72;25.20;;;7.80;99.90;;;;;;5011539;28;20085;-65
2022/03/15 09:49:24;;;;;;;36.42;24.20;;;7.80;99.90;;;;;;5010097;28;20058;-67
2022/03/15 09:51:50;;;;;;;35.17;24.92;;;7.90;99.90;;;;;;5011413;28;20069;-64
2022/03/15 09:54:17;;;;;;;37.20;23.83;;;7.90;99.90;;;;;;5011502;28;20139;-66
2022/03/15 09:56:43;;;;;;;31.60;23.35;;;8.00;99.90;;;;;;5027504;28;20173;-64
2022/03/15 09:59:19;;;;;;;32.67;23.85;;;8.10;99.90;;;;;;5010773;28;20135;-66
2022/03/15 10:01:51;;;;;;;30.70;23.95;;;8.20;99.90;;;;;;5006412;28;20054;-64
2022/03/15 10:04:18;;;;;;;34.58;23.33;;;8.20;99.90;;;;;;5000665;28;20045;-62
2022/03/15 10:06:44;;;;;;;29.52;22.13;;;8.40;99.90;;;;;;5011268;28;20488;-63
2022/03/15 10:09:11;;;;;;;32.83;22.85;;;8.40;99.90;;;;;;4998621;28;20050;-63
2022/03/15 10:11:37;;;;;;;31.30;22.55;;;8.50;99.90;;;;;;5011895;28;20069;-62
2022/03/15 10:14:04;;;;;;;30.35;21.95;;;8.60;99.90;;;;;;4998149;28;20096;-64
2022/03/15 10:16:35;;;;;;;31.35;22.10;;;8.60;99.90;;;;;;5015617;28;20045;-63
2022/03/15 10:19:01;;;;;;;31.98;22.58;;;8.70;99.90;;;;;;5001356;28;20054;-65
2022/03/15 10:21:44;;;;;;;32.80;23.52;;;8.80;99.90;;;;;;4994753;28;20486;-64
2022/03/15 10:24:10;;;;;;;;;;;8.90;99.90;;;;;;4995752;28;20116;-64
2022/03/15 10:26:40;;;;;;;30.67;21.65;;;8.90;99.90;;;;;;4995794;28;19930;-64
2022/03/15 10:29:11;;;;;;;31.88;20.77;;;9.00;99.90;;;;;;4994929;28;20499;-65
2022/03/15 10:31:37;;;;;;;32.85;22.15;;;9.00;99.90;;;;;;4995239;28;20061;-65
2022/03/15 10:34:05;;;;;;;29.63;21.70;;;9.00;99.90;;;;;;5014605;28;20049;-64
2022/03/15 10:36:40;;;;;;;31.13;23.55;;;9.10;99.90;;;;;;5015582;28;20060;-65
2022/03/15 10:39:11;;;;;;;30.80;22.05;;;9.20;99.90;;;;;;5015777;28;20050;-63
2022/03/15 10:41:52;;;;;;;34.65;22.10;;;9.30;99.90;;;;;;5013721;28;20129;-64
2022/03/15 10:44:20;;;;;;;32.70;21.67;;;9.50;99.90;;;;;;5001517;28;20062;-65
2022/03/15 10:47:03;;;;;;;34.83;22.42;;;9.60;99.90;;;;;;4994715;28;20058;-65
2022/03/15 10:49:30;;;;;;;35.67;23.05;;;9.80;99.90;;;;;;4995686;28;20050;-67
2022/03/15 10:51:56;;;;;;;28.45;20.42;;;10.00;99.90;;;;;;4994414;28;20137;-65
2022/03/15 10:54:24;;;;;;;27.83;21.20;;;10.10;99.90;;;;;;5007348;28;20054;-64
2022/03/15 10:56:55;;;;;;;32.33;19.98;;;10.20;99.90;;;;;;5013802;28;20120;-66
2022/03/15 10:59:22;;;;;;;31.88;20.88;;;10.30;99.90;;;;;;5014107;28;20072;-64
2022/03/15 11:01:48;;;;;;;32.58;20.60;;;10.30;99.90;;;;;;5006707;28;20099;-64
2022/03/15 11:04:15;;;;;;;27.23;19.58;;;10.30;99.90;;;;;;5013079;28;20058;-65
2022/03/15 11:06:44;;;;;;;30.85;20.33;;;10.40;99.90;;;;;;5014826;28;20420;-64
2022/03/15 11:09:21;;;;;;;26.73;19.05;;;10.50;99.90;;;;;;5013830;28;20057;-64
2022/03/15 11:11:59;;;;;;;25.40;18.60;;;10.50;99.90;;;;;;5009981;28;20474;-67
2022/03/15 11:14:40;;;;;;;29.98;19.13;;;10.60;99.90;;;;;;5009907;28;20513;-65
2022/03/15 11:17:12;;;;;;;28.33;19.23;;;10.60;99.90;;;;;;5014007;28;20358;-67
2022/03/15 11:19:44;;;;;;;26.10;18.73;;;10.80;99.90;;;;;;5014233;28;20406;-65
2022/03/15 11:22:13;;;;;;;21.98;16.35;;;10.80;99.90;;;;;;5011095;28;20057;-67
2022/03/15 11:25:02;;;;;;;23.33;16.67;;;10.80;99.90;;;;;;5014899;28;20149;-64
2022/03/15 11:27:31;;;;;;;23.58;16.50;;;10.80;99.90;;;;;;5013880;28;20050;-65
2022/03/15 11:30:02;;;;;;;21.83;15.70;;;10.90;99.90;;;;;;5014889;28;20093;-64
2022/03/15 11:32:31;;;;;;;22.23;15.27;;;10.90;99.90;;;;;;5011404;28;20042;-64
2022/03/15 11:34:57;;;;;;;18.33;15.52;;;11.00;99.90;;;;;;5012076;28;20069;-66
2022/03/15 11:37:23;;;;;;;23.23;16.25;;;11.00;99.90;;;;;;5014487;28;20103;-65
2022/03/15 11:39:49;;;;;;;19.35;14.82;;;11.00;99.90;;;;;;5013404;28;20129;-63
2022/03/15 11:42:17;;;;;;;19.58;14.40;;;11.00;99.90;;;;;;5006573;28;20072;-65
2022/03/15 11:45:09;;;;;;;18.40;13.60;;;11.10;99.90;;;;;;5003221;28;20085;-64
2022/03/15 11:47:42;;;;;;;17.17;13.63;;;11.00;99.90;;;;;;4995978;28;20181;-64
2022/03/15 11:50:19;;;;;;;15.45;13.40;;;11.00;99.90;;;;;;5003133;28;20463;-65
2022/03/15 11:53:39;;;;;;;18.13;13.13;;;11.10;99.90;;;;;;5001566;28;20463;-66
2022/03/15 11:56:42;;;;;;;18.73;13.75;;;11.10;99.90;;;;;;4998426;28;20054;-64
2022/03/15 11:59:08;;;;;;;20.15;14.30;;;11.20;99.90;;;;;;4994326;28;20509;-63
2022/03/15 12:01:47;;;;;;;16.90;13.13;;;11.20;99.90;;;;;;5009529;28;20136;-65
2022/03/15 12:04:15;;;;;;;16.90;13.35;;;11.20;99.90;;;;;;5009623;28;20054;-66
2022/03/15 12:07:07;;;;;;;18.27;13.60;;;11.30;99.90;;;;;;4994109;28;20483;-64
2022/03/15 12:09:34;;;;;;;22.83;15.27;;;11.40;99.90;;;;;;4996484;28;20050;-64
2022/03/15 12:12:07;;;;;;;18.30;14.20;;;11.30;99.90;;;;;;4992318;28;20408;-65
2022/03/15 12:14:43;;;;;;;22.38;14.10;;;11.40;99.90;;;;;;4993169;28;20105;-64
2022/03/15 12:17:12;;;;;;;23.98;14.27;;;11.40;99.90;;;;;;4997324;28;20065;-65
2022/03/15 12:19:47;;;;;;;26.23;15.27;;;11.50;99.90;;;;;;5027333;28;20050;-64
2022/03/15 12:22:29;;;;;;;19.63;14.25;;;11.60;99.90;;;;;;5012586;28;20065;-64
2022/03/15 12:25:17;;;;;;;26.15;15.32;;;11.60;99.90;;;;;;4995964;28;20380;-65
2022/03/15 12:27:47;;;;;;;19.50;14.13;;;11.70;99.90;;;;;;4992550;28;20470;-65
2022/03/15 12:30:26;;;;;;;21.02;14.63;;;11.70;99.90;;;;;;4993075;28;20109;-65
2022/03/15 12:32:56;;;;;;;22.10;13.85;;;11.80;99.90;;;;;;4991871;28;20054;-65
2022/03/15 12:35:27;;;;;;;19.85;13.23;;;11.80;99.90;;;;;;4992801;28;20066;-65
2022/03/15 12:38:04;;;;;;;17.92;13.43;;;11.90;99.90;;;;;;4992951;28;20076;-64
2022/03/15 12:40:30;;;;;;;20.88;14.00;;;11.90;99.90;;;;;;4993816;28;20489;-65
2022/03/15 12:42:58;;;;;;;22.92;15.15;;;11.90;99.90;;;;;;4992086;28;20144;-65